Pembroke Pines, FL

7:42 AM EDT on May 30, 2015 (GMT -0400)
ISLAND DR. AREA | | Change Station
CLOSE
Current Station
Personal Weather Station
Location: MIRAMAR, FL
Elevation: 7 ft
Nearby Weather Stations

Elev 7 ft 25.99 °N, 80.24 °W | Updated 18 seconds ago

Clear
Clear
77.3 °F
Feels Like 79 °F
N
0.0
Wind Variable Wind from WNW
Gusts 0.0 mph

Today
High -- | Low -- °F
--% Chance of Precip.
Yesterday
High -- | Low -- °F
Precip. -- in
6:29 AM 8:07 PM
Waxing Gibbous, 90% visible
Pressure 30.03 in
Visibility 10.0 miles
Clouds Few 2700 ft
Few 4000 ft
Scattered Clouds 25000 ft
Heat Index 79 °F
Dew Point 72 °F
Humidity 85%
Rainfall 0.00 in
Snow Depth Not available.
UV 0.0 out of 12
Pollen 3.70 out of 12
Air Quality Not available.
Flu Activity Sporadic
METAR KFLL 301053Z 09005KT 10SM FEW027 FEW040 SCT250 26/21 A3002 RMK AO2 SLP167 T02560211

More Conditions Fewer Conditions

Pressure 30.03 in
Visibility 10.0 miles
Clouds Few 2700 ft
Few 4000 ft
Scattered Clouds 25000 ft
Heat Index 79 °F
Dew Point 72 °F
Humidity 85%
Rainfall 0.00 in
Snow Depth Not available.
UV 0.0 out of 12
Pollen 3.70 out of 12
Air Quality Not available.
Flu Activity Sporadic
METAR KFLL 301053Z 09005KT 10SM FEW027 FEW040 SCT250 26/21 A3002 RMK AO2 SLP167 T02560211

More Conditions Fewer Conditions

10-Day Weather Forecast

Almanac

Astronomy

May. 30, 2015 Rise Set
Actual Time
Civil Twilight
Nautical Twilight
Astronomical Twilight
Moon
Length of Visible Light
Length of Day
Tomorrow will be .
, % of the Moon is Illuminated

Today's Extremes

State Highs State Lows

Community

WunderPhotos

Upload Photos

1,825,484 photos uploaded!

WunderBlogs® & News

Nearby

Air Quality

  Air Quality AQ Index Pollutant
Not available.

Snow Depth

Station Depth Elevation

Earthquake Activity

City Distance Mag. Time & Date
Minimum magnitude displayed is 2.5.

Coastal Water Temperatures

Place Temperature

Stations

Nearby Weather Stations

Station Location Temp. Windchill Dew Point Humidity Wind Precip. Elev Updated Type